Latest Coastal Weather Observations for Gabo Island

IDT60701

Issued at 12:45 pm EDT Sunday 26 October 2014 (issued every 10 minutes, with the page automatically refreshed every 10 minutes)

About coastal observations | Map of coastal stations | Coastal observations for TAS | Marine services | Other Formats
Station Details ID: 084016 Name: GABO ISLAND LIGHTHOUSE Lat: -37.57 Lon: 149.92 Height: 15.2 m
Data from the previous 72 hours. | See also: Recent months at Gabo Island
Date/Time
EDT
Temp

°C
Wind Pressure Rain
since 9am
mm
Weather Cloud Vis
km
Sea
Height
m
Swell
Dir
 
Speed
knots
Gust
knots
hPa Trend Height
m
Period
s
Dir
26/12:30pm 15.4 SW 18 20 1012.2 - 0.0 - - - - - - -
26/12:00pm 15.4 SW 18 23 1012.4 - 0.0 - - - - - - -
26/11:30am 15.4 SW 16 19 1012.6 - 0.0 - - - - - - -
26/11:00am 15.2 SW 14 16 1012.6 - 0.0 - - - - - - -
26/10:30am 15.3 SW 12 14 1012.6 - 0.0 - - - - - - -
26/10:00am 15.3 SW 12 14 1012.6 - 0.0 - - - - - - -
26/09:30am 14.9 SW 13 14 1012.5 - 0.0 - - - - - - -
26/09:00am 15.0 SW 12 14 1012.5 - 0.6 Drizzle Cloudy 10 <0.5 1.0 - E
26/08:30am 15.0 SW 9 11 1012.4 - 0.6 - - - - - - -
26/08:00am 15.2 SW 7 8 1012.2 - 0.6 - - - - - - -
26/07:30am 15.1 SW 5 6 1011.9 - 0.6 - - - - - - -
26/07:00am 15.0 SW 5 6 1012.0 - 0.4 - - - - - - -
26/06:30am 15.0 SSW 7 9 1012.1 - 0.4 - - - - - - -
26/06:00am 15.0 SSW 5 6 1012.0 - 0.4 - - - - - - -
26/05:30am 15.0 SSW 4 5 1011.7 - 0.2 - - - - - - -
26/05:00am 15.0 SSW 5 6 1012.0 - 0.0 - - - - - - -
26/04:30am 14.9 N 1 4 1011.9 - 0.0 - - - - - - -
26/04:00am 14.1 CALM 0 0 1012.0 - 0.0 - - - - - - -
26/03:30am 14.2 NNE 0 0 1012.5 - 0.0 - - - - - - -
26/03:00am 14.8 CALM 0 0 1012.9 - 0.0 Drizzle Cloudy 15 <0.5 1.0 - E
26/02:30am 14.7 CALM 0 0 1013.1 - 0.0 - - - - - - -
26/02:00am 14.6 CALM 0 0 1013.7 - 0.0 - - - - - - -
26/01:30am 14.6 NNE 0 0 1014.2 - 0.0 - - - - - - -
26/01:00am 14.6 CALM 0 0 1014.6 - 0.0 - - - - - - -
26/12:30am 14.6 N 3 5 1015.4 - 0.0 - - - - - - -
26/12:00am 14.8 SSE 1 2 1015.7 - 0.0 - - - - - - -
 
Date/Time
EDT
Temp

°C
Wind Pressure Rain
since 9am
mm
Weather Cloud Vis
km
Sea
Height
m
Swell
Dir
 
Speed
knots
Gust
knots
hPa Trend Height
m
Period
s
Dir
25/11:30pm 14.9 SE 3 4 1015.8 - 0.0 - - - - - - -
25/11:00pm 15.0 SE 4 5 1016.0 - 0.0 - - - - - - -
25/10:30pm 15.1 SE 1 4 1016.4 - 0.0 - - - - - - -
25/10:00pm 15.1 SE 3 5 1016.4 - 0.0 - - - - - - -
25/09:30pm 15.5 S 3 5 1016.6 - 0.0 - - - - - - -
25/09:00pm 15.7 SSE 4 6 1016.7 - 0.0 Fine Cloudy 20 1 1.0 - E
25/08:30pm 15.9 SSW 4 5 1016.6 - 0.0 - - - - - - -
25/08:00pm 16.0 SSW 4 6 1016.3 - 0.0 - - - - - - -
25/07:30pm 16.0 SSE 5 7 1015.8 - 0.0 - - - - - - -
25/07:00pm 16.1 S 7 9 1015.7 - 0.0 - - - - - - -
25/06:30pm 16.1 SSW 5 8 1016.3 - 0.0 - - - - - - -
25/06:00pm 16.2 SW 6 7 1015.9 - 0.0 - - - - - - -
25/05:30pm 16.2 SSW 7 8 1015.5 - 0.0 - - - - - - -
25/05:00pm 16.9 S 9 11 1015.0 - 0.0 - - - - - - -
25/04:30pm 17.3 S 9 11 1015.1 - 0.0 - - - - - - -
25/04:00pm 17.1 S 9 11 1015.1 - 0.0 - - - - - - -
25/03:30pm 17.6 S 10 11 1015.4 - 0.0 - - - - - - -
25/03:00pm 17.6 S 12 14 1015.6 - 0.0 Fine Cloudy 20 1 1.0 - E
25/02:30pm 17.0 SSW 13 16 1016.0 - 0.0 - - - - - - -
25/02:00pm 17.6 SSW 16 18 1016.2 - 0.0 - - - - - - -
25/01:30pm 16.6 SSW 17 20 1016.3 - 0.0 - - - - - - -
25/01:00pm 16.3 SSW 18 21 1016.4 - 0.0 - - - - - - -
25/12:30pm 16.1 SSW 18 21 1016.6 - 0.0 - - - - - - -
25/12:00pm 16.0 SSW 19 21 1016.8 - 0.0 - - - - - - -
25/11:30am 15.8 SW 20 22 1016.9 - 0.0 - - - - - - -
25/11:00am 15.7 SW 21 24 1017.0 - 0.0 - - - - - - -
25/10:30am 15.8 SW 19 24 1017.0 - 0.0 - - - - - - -
25/10:00am 15.7 SW 19 23 1016.9 - 0.0 - - - - - - -
25/09:30am 15.8 SW 18 21 1016.9 - 0.0 - - - - - - -
25/09:00am 15.8 SW 19 23 1016.8 - 0.0 Fine Cloudy 15 1 1.0 - E
25/08:30am 15.8 SW 20 23 1016.7 - 0.0 - - - - - - -
25/08:00am 15.7 SW 19 23 1016.7 - 0.0 - - - - - - -
25/07:30am 15.7 SW 21 25 1016.3 - 0.0 - - - - - - -
25/07:00am 15.8 SW 24 27 1015.8 - 0.0 - - - - - - -
25/06:30am 15.7 SW 21 24 1015.7 - 0.0 - - - - - - -
25/06:00am 15.8 SW 22 26 1015.1 - 0.0 - - - - - - -
25/05:30am 16.0 SW 16 21 1014.7 - 0.0 - - - - - - -
25/05:00am 16.3 W 12 14 1014.4 - 0.0 - - - - - - -
25/04:30am 16.4 W 12 14 1013.9 - 0.0 - - - - - - -
25/04:20am 16.1 W 12 14 1013.9 - 0.0 - - - - - - -
25/04:00am 16.7 SW 20 24 1013.9 - 0.0 - - - - - - -
25/03:54am 16.9 SW 20 24 1013.8 - 0.0 - - - - - - -
25/03:30am 16.9 W 14 17 1013.3 - 0.0 - - - - - - -
25/03:00am 16.8 WSW 15 19 1013.2 - 0.0 Lightning Mostly clear 20 1 1.0 - SE
25/02:30am 16.8 WSW 17 21 1013.1 - 0.0 - - - - - - -
25/02:00am 16.7 WSW 15 19 1012.7 - 0.0 - - - - - - -
25/01:30am 16.7 WSW 10 11 1012.7 - 0.0 - - - - - - -
25/01:00am 16.0 WSW 6 7 1012.7 - 0.0 - - - - - - -
25/12:30am 16.1 N 4 5 1012.5 - 0.0 - - - - - - -
25/12:00am 16.2 NNE 7 7 1012.2 - 0.0 - - - - - - -
 
Date/Time
EDT
Temp

°C
Wind Pressure Rain
since 9am
mm
Weather Cloud Vis
km
Sea
Height
m
Swell
Dir
 
Speed
knots
Gust
knots
hPa Trend Height
m
Period
s
Dir
24/11:30pm 15.9 NNE 8 9 1012.0 - 0.0 - - - - - - -
24/11:00pm 16.4 NNE 6 8 1012.2 - 0.0 - - - - - - -
24/10:30pm 16.9 NNE 6 8 1012.0 - 0.0 - - - - - - -
24/10:00pm 17.0 NNE 7 9 1012.1 - 0.0 - - - - - - -
24/09:30pm 16.7 NNE 11 13 1011.9 - 0.0 - - - - - - -
24/09:00pm 16.7 NE 14 16 1011.6 - 0.0 Fine Cloudy 20 1 1.0 - SE
24/08:30pm 17.3 NE 14 16 1011.5 - 0.0 - - - - - - -
24/08:00pm 18.2 NE 16 19 1011.0 - 0.0 - - - - - - -
24/07:30pm 17.9 NNE 14 19 1011.1 - 0.0 - - - - - - -
24/07:00pm 18.3 NNE 18 22 1010.6 - 0.0 - - - - - - -
24/06:30pm 18.5 NE 18 22 1010.5 - 0.0 - - - - - - -
24/06:00pm 18.0 NE 24 28 1010.1 - 0.0 - - - - - - -
24/05:30pm 18.2 NE 24 30 1009.8 - 0.0 - - - - - - -
24/05:00pm 19.0 NE 26 32 1009.7 - 0.0 - - - - - - -
24/04:30pm 18.6 NE 26 33 1010.0 - 0.0 - - - - - - -
24/04:00pm 19.5 NE 28 34 1010.2 - 0.0 - - - - - - -
24/03:30pm 19.4 NE 28 34 1010.3 - 0.0 - - - - - - -
24/03:00pm 19.9 NE 31 37 1010.6 - 0.0 Fine Mostly cloudy 15 2 1.0 - S
24/02:35pm 19.8 NNE 30 40 1010.9 - 0.0 - - - - - - -
24/02:30pm 19.8 NNE 31 40 1010.9 - 0.0 - - - - - - -
24/02:12pm 19.6 NE 30 40 1011.1 - 0.0 - - - - - - -
24/02:00pm 19.3 NE 30 35 1011.5 - 0.0 - - - - - - -
24/01:30pm 18.6 NE 27 33 1012.1 - 0.0 - - - - - - -
24/01:00pm 18.7 NNE 27 33 1012.7 - 0.0 - - - - - - -
24/12:30pm 19.0 NE 27 35 1012.9 - 0.0 - - - - - - -
24/12:00pm 19.4 NE 30 37 1013.2 - 0.0 - - - - - - -
24/11:30am 18.8 NE 28 36 1013.8 - 0.0 - - - - - - -
24/11:00am 18.6 NE 28 35 1014.5 - 0.0 - - - - - - -
24/10:30am 17.9 NE 25 29 1015.1 - 0.0 - - - - - - -
24/10:00am 18.0 NE 26 29 1015.7 - 0.0 - - - - - - -
24/09:30am 18.0 NE 27 31 1015.7 - 0.0 - - - - - - -
24/09:00am 17.8 NE 23 26 1016.2 - 2.0 Fine Cloudy 15 2 1.0 - S
24/08:30am 17.6 NE 19 22 1016.7 - 2.0 - - - - - - -
24/08:00am 17.1 NE 20 24 1016.8 - 2.0 - - - - - - -
24/07:30am 17.1 NE 21 25 1016.9 - 2.0 - - - - - - -
24/07:00am 17.1 NE 21 24 1016.9 - 2.0 - - - - - - -
24/06:30am 17.1 NE 21 25 1016.8 - 2.0 - - - - - - -
24/06:00am 17.1 ENE 24 28 1016.4 - 2.0 - - - - - - -
24/05:30am 17.2 NE 20 26 1017.7 - 0.4 - - - - - - -
24/05:00am 17.0 NE 24 27 1016.4 - 0.4 - - - - - - -
24/04:30am 17.0 NE 17 19 1017.0 - 0.4 - - - - - - -
24/04:00am 17.0 NE 17 20 1017.2 - 0.4 - - - - - - -
24/03:30am 17.0 NE 12 14 1018.2 - 0.4 - - - - - - -
24/03:00am 17.2 NNE 13 15 1018.3 - 0.4 Lightning Cloudy 10 1 2.0 - E
24/02:30am 16.9 NE 12 14 1018.3 - 0.2 - - - - - - -
24/02:00am 17.0 NE 12 14 1018.5 - 0.2 - - - - - - -
24/01:30am 17.0 NNE 9 11 1019.2 - 0.2 - - - - - - -
24/01:00am 16.6 NNE 7 9 1019.4 - 0.0 - - - - - - -
24/12:30am 16.6 NNE 6 8 1019.7 - 0.0 - - - - - - -
24/12:00am 16.5 NNE 7 9 1019.9 - 0.0 - - - - - - -
 
Date/Time
EDT
Temp

°C
Wind Pressure Rain
since 9am
mm
Weather Cloud Vis
km
Sea
Height
m
Swell
Dir
 
Speed
knots
Gust
knots
hPa Trend Height
m
Period
s
Dir
23/11:30pm 16.6 NNE 6 7 1019.9 - 0.0 - - - - - - -
23/11:00pm 16.6 NNW 1 4 1020.3 - 0.0 - - - - - - -
23/10:30pm 16.4 N 4 5 1020.1 - 0.0 - - - - - - -
23/10:00pm 16.3 E 4 5 1020.0 - 0.0 - - - - - - -
23/09:30pm 16.5 SSE 4 7 1019.9 - 0.0 - - - - - - -
23/09:00pm 16.7 S 6 8 1019.9 - 0.0 Showers Mostly cloudy 10 1 2.0 - E
23/08:30pm 16.6 W 5 6 1020.5 - 0.0 - - - - - - -
23/08:00pm 16.8 W 6 8 1020.4 - 0.0 - - - - - - -
23/07:30pm 16.9 W 4 5 1019.5 - 0.0 - - - - - - -
23/07:00pm 16.8 WSW 5 6 1019.1 - 0.0 - - - - - - -
23/06:30pm 16.9 SW 6 7 1019.2 - 0.0 - - - - - - -
23/06:00pm 17.1 WSW 6 8 1019.3 - 0.0 - - - - - - -
23/05:30pm 17.3 SW 7 9 1019.3 - 0.0 - - - - - - -
23/05:00pm 17.5 SW 9 10 1019.1 - 0.0 - - - - - - -
23/04:30pm 17.8 WSW 9 11 1019.1 - 0.0 - - - - - - -
23/04:00pm 18.3 SW 8 9 1018.7 - 0.0 - - - - - - -
23/03:30pm 17.9 SSW 11 13 1018.5 - 0.0 - - - - - - -
23/03:00pm 19.1 SSW 12 15 1018.6 - 0.0 Fine Mostly cloudy 10 1 2.0 - E
23/02:30pm 17.8 SSW 13 15 1018.6 - 0.0 - - - - - - -
23/02:00pm 17.7 SSW 16 18 1018.7 - 0.0 - - - - - - -
23/01:30pm 17.5 SSW 18 20 1018.7 - 0.0 - - - - - - -
23/01:00pm 17.8 SSW 16 19 1018.5 - 0.0 - - - - - - -

Other Formats:

Comma delimited format used in spreadsheet applications
http://www.bom.gov.au/fwo/IDT60701/IDT60701.94933.axf

JavaScript Object Notation format (JSON) in row-major order
http://www.bom.gov.au/fwo/IDT60701/IDT60701.94933.json